N52TG KMKJ-KHBI
Flight info
| Callsign | N52TG |
|---|---|
| Flight time | 1h 58m |
| Altitude | 6500 |
| Route | VFR |
| Aircraft | C172/L-SDF/C |
Departure
| Time | 2026-04-22 19:26 |
|---|---|
| Airport | Mountain Empire Airport (KMKJ) |
Arrival
| Time | 2026-04-22 21:25 |
|---|---|
| Airport | Asheboro Regional Airport (KHBI) |
| Time | Latitude | Longitude | Altitude | Speed | Heading |
|---|---|---|---|---|---|
| 2026-04-22 19:12 | 36.89574 | -81.34251 | 2496 ft | 0 kts | 343° |
| 2026-04-22 19:22 | 36.89590 | -81.34264 | 2496 ft | 7 kts | 292° |
| 2026-04-22 19:22 | 36.89584 | -81.34282 | 2497 ft | 3 kts | 187° |
| 2026-04-22 19:22 | 36.89588 | -81.34245 | 2496 ft | 13 kts | 59° |
| 2026-04-22 19:23 | 36.89623 | -81.34136 | 2497 ft | 10 kts | 70° |
| 2026-04-22 19:23 | 36.89632 | -81.34125 | 2497 ft | 0 kts | 10° |
| 2026-04-22 19:25 | 36.89663 | -81.34129 | 2498 ft | 9 kts | 342° |
| 2026-04-22 19:25 | 36.89690 | -81.34149 | 2498 ft | 3 kts | 265° |
| 2026-04-22 19:25 | 36.89661 | -81.34266 | 2498 ft | 30 kts | 253° |
| 2026-04-22 19:25 | 36.89553 | -81.34705 | 2524 ft | 69 kts | 261° |
| 2026-04-22 19:26 | 36.89395 | -81.35328 | 2658 ft | 80 kts | 258° |
| 2026-04-22 19:26 | 36.89246 | -81.36031 | 2818 ft | 84 kts | 261° |
| 2026-04-22 19:26 | 36.89053 | -81.36697 | 3026 ft | 82 kts | 255° |
| 2026-04-22 19:26 | 36.88875 | -81.37312 | 3312 ft | 69 kts | 256° |
| 2026-04-22 19:27 | 36.88673 | -81.37849 | 3499 ft | 70 kts | 252° |
| 2026-04-22 19:27 | 36.88477 | -81.38409 | 3671 ft | 73 kts | 248° |
| 2026-04-22 19:27 | 36.88201 | -81.38965 | 3783 ft | 81 kts | 244° |
| 2026-04-22 19:27 | 36.87906 | -81.39597 | 3891 ft | 85 kts | 247° |
| 2026-04-22 19:28 | 36.87632 | -81.40253 | 4019 ft | 85 kts | 249° |
| 2026-04-22 19:28 | 36.87361 | -81.40899 | 4113 ft | 83 kts | 249° |
| 2026-04-22 19:28 | 36.87105 | -81.41544 | 4227 ft | 82 kts | 251° |
| 2026-04-22 19:28 | 36.86837 | -81.42178 | 4339 ft | 82 kts | 248° |
| 2026-04-22 19:29 | 36.86572 | -81.42816 | 4460 ft | 82 kts | 250° |
| 2026-04-22 19:29 | 36.86297 | -81.43449 | 4584 ft | 81 kts | 252° |
| 2026-04-22 19:29 | 36.86031 | -81.44075 | 4707 ft | 82 kts | 252° |
| 2026-04-22 19:29 | 36.85817 | -81.44724 | 4842 ft | 80 kts | 256° |
| 2026-04-22 19:30 | 36.85674 | -81.45152 | 4917 ft | 81 kts | 257° |
| 2026-04-22 19:30 | 36.85381 | -81.46016 | 5100 ft | 80 kts | 257° |
| 2026-04-22 19:30 | 36.85166 | -81.46651 | 5221 ft | 79 kts | 255° |
| 2026-04-22 19:30 | 36.84961 | -81.47276 | 5350 ft | 79 kts | 256° |
| 2026-04-22 19:31 | 36.84759 | -81.47915 | 5469 ft | 77 kts | 259° |
| 2026-04-22 19:31 | 36.84605 | -81.48550 | 5589 ft | 76 kts | 261° |
| 2026-04-22 19:31 | 36.84458 | -81.49184 | 5711 ft | 76 kts | 262° |
| 2026-04-22 19:31 | 36.84316 | -81.49814 | 5835 ft | 75 kts | 261° |
| 2026-04-22 19:32 | 36.84174 | -81.50437 | 5960 ft | 75 kts | 261° |
| 2026-04-22 19:32 | 36.84029 | -81.51058 | 6092 ft | 73 kts | 260° |
| 2026-04-22 19:32 | 36.83889 | -81.51672 | 6221 ft | 73 kts | 261° |
| 2026-04-22 19:32 | 36.83750 | -81.52283 | 6349 ft | 73 kts | 261° |
| 2026-04-22 19:33 | 36.83606 | -81.52907 | 6444 ft | 77 kts | 261° |
| 2026-04-22 19:33 | 36.83456 | -81.53588 | 6457 ft | 86 kts | 261° |
| 2026-04-22 19:33 | 36.83299 | -81.54344 | 6468 ft | 92 kts | 262° |
| 2026-04-22 19:33 | 36.83143 | -81.55128 | 6463 ft | 96 kts | 262° |
| 2026-04-22 19:34 | 36.82976 | -81.55956 | 6458 ft | 98 kts | 262° |
| 2026-04-22 19:34 | 36.82809 | -81.56779 | 6459 ft | 99 kts | 262° |
| 2026-04-22 19:34 | 36.82643 | -81.57613 | 6460 ft | 99 kts | 263° |
| 2026-04-22 19:34 | 36.82483 | -81.58453 | 6457 ft | 97 kts | 263° |
| 2026-04-22 19:35 | 36.82330 | -81.59266 | 6458 ft | 96 kts | 263° |
| 2026-04-22 19:35 | 36.82177 | -81.60075 | 6457 ft | 93 kts | 262° |
| 2026-04-22 19:35 | 36.82079 | -81.60589 | 6457 ft | 92 kts | 262° |
| 2026-04-22 19:35 | 36.81881 | -81.61627 | 6456 ft | 91 kts | 263° |
| 2026-04-22 19:36 | 36.81731 | -81.62390 | 6456 ft | 90 kts | 263° |
| 2026-04-22 19:36 | 36.81580 | -81.63152 | 6455 ft | 90 kts | 263° |
| 2026-04-22 19:36 | 36.81428 | -81.63908 | 6451 ft | 90 kts | 263° |
| 2026-04-22 19:36 | 36.81276 | -81.64667 | 6444 ft | 89 kts | 263° |
| 2026-04-22 19:37 | 36.81120 | -81.65417 | 6450 ft | 88 kts | 261° |
| 2026-04-22 19:37 | 36.80928 | -81.66145 | 6448 ft | 89 kts | 258° |
| 2026-04-22 19:37 | 36.80726 | -81.66878 | 6445 ft | 89 kts | 258° |
| 2026-04-22 19:37 | 36.80525 | -81.67606 | 6445 ft | 89 kts | 258° |
| 2026-04-22 19:38 | 36.80327 | -81.68353 | 6451 ft | 90 kts | 258° |
| 2026-04-22 19:38 | 36.80136 | -81.69096 | 6443 ft | 90 kts | 258° |
| 2026-04-22 19:38 | 36.79944 | -81.69841 | 6439 ft | 90 kts | 258° |
| 2026-04-22 19:38 | 36.79756 | -81.70578 | 6443 ft | 89 kts | 258° |
| 2026-04-22 19:39 | 36.79569 | -81.71320 | 6445 ft | 89 kts | 259° |
| 2026-04-22 19:39 | 36.79376 | -81.72063 | 6450 ft | 89 kts | 258° |
| 2026-04-22 19:39 | 36.79187 | -81.72799 | 6450 ft | 90 kts | 258° |
| 2026-04-22 19:39 | 36.78933 | -81.73539 | 6371 ft | 99 kts | 249° |
| 2026-04-22 19:40 | 36.78583 | -81.74330 | 6123 ft | 106 kts | 249° |
| 2026-04-22 19:40 | 36.78215 | -81.75133 | 5871 ft | 107 kts | 249° |
| 2026-04-22 19:40 | 36.77846 | -81.75935 | 5620 ft | 108 kts | 249° |
| 2026-04-22 19:40 | 36.77479 | -81.76744 | 5364 ft | 108 kts | 248° |
| 2026-04-22 19:41 | 36.77110 | -81.77554 | 5111 ft | 108 kts | 247° |
| 2026-04-22 19:41 | 36.76724 | -81.78358 | 4859 ft | 108 kts | 246° |
| 2026-04-22 19:41 | 36.76347 | -81.79151 | 4678 ft | 104 kts | 247° |
| 2026-04-22 19:41 | 36.75975 | -81.79919 | 4547 ft | 101 kts | 246° |
| 2026-04-22 19:42 | 36.75620 | -81.80660 | 4483 ft | 96 kts | 246° |
| 2026-04-22 19:42 | 36.75279 | -81.81364 | 4481 ft | 93 kts | 246° |
| 2026-04-22 19:42 | 36.74941 | -81.82046 | 4482 ft | 93 kts | 246° |
| 2026-04-22 19:42 | 36.74535 | -81.82690 | 4483 ft | 96 kts | 236° |
| 2026-04-22 19:43 | 36.73594 | -81.83878 | 4487 ft | 97 kts | 235° |
| 2026-04-22 19:43 | 36.73117 | -81.84470 | 4486 ft | 96 kts | 233° |
| 2026-04-22 19:43 | 36.72639 | -81.85066 | 4491 ft | 96 kts | 233° |
| 2026-04-22 19:44 | 36.72197 | -81.85680 | 4490 ft | 95 kts | 241° |
| 2026-04-22 19:44 | 36.71809 | -81.86379 | 4387 ft | 101 kts | 245° |
| 2026-04-22 19:44 | 36.71420 | -81.87117 | 4250 ft | 103 kts | 245° |
| 2026-04-22 19:44 | 36.71032 | -81.87881 | 4127 ft | 106 kts | 245° |
| 2026-04-22 19:45 | 36.70642 | -81.88663 | 3994 ft | 106 kts | 245° |
| 2026-04-22 19:45 | 36.70258 | -81.89450 | 3857 ft | 107 kts | 245° |
| 2026-04-22 19:45 | 36.69876 | -81.90244 | 3724 ft | 107 kts | 245° |
| 2026-04-22 19:45 | 36.69466 | -81.91026 | 3573 ft | 108 kts | 240° |
| 2026-04-22 19:46 | 36.69000 | -81.91743 | 3510 ft | 102 kts | 238° |
| 2026-04-22 19:46 | 36.68559 | -81.92400 | 3501 ft | 97 kts | 239° |
| 2026-04-22 19:46 | 36.68102 | -81.93012 | 3504 ft | 95 kts | 232° |
| 2026-04-22 19:46 | 36.67606 | -81.93562 | 3494 ft | 95 kts | 231° |
| 2026-04-22 19:47 | 36.67112 | -81.94100 | 3515 ft | 95 kts | 229° |
| 2026-04-22 19:47 | 36.66611 | -81.94643 | 3514 ft | 96 kts | 229° |
| 2026-04-22 19:47 | 36.66275 | -81.95011 | 3499 ft | 94 kts | 231° |
| 2026-04-22 19:47 | 36.65617 | -81.95727 | 3494 ft | 93 kts | 230° |
| 2026-04-22 19:48 | 36.65133 | -81.96262 | 3511 ft | 92 kts | 229° |
| 2026-04-22 19:48 | 36.64649 | -81.96801 | 3505 ft | 93 kts | 230° |
| 2026-04-22 19:48 | 36.64164 | -81.97325 | 3518 ft | 94 kts | 229° |
| 2026-04-22 19:48 | 36.63866 | -81.97982 | 3502 ft | 87 kts | 271° |
| 2026-04-22 19:49 | 36.64207 | -81.98606 | 3440 ft | 96 kts | 325° |
| 2026-04-22 19:49 | 36.64831 | -81.98848 | 3476 ft | 88 kts | 318° |
| 2026-04-22 19:49 | 36.65292 | -81.99382 | 3367 ft | 92 kts | 303° |
| 2026-04-22 19:49 | 36.65653 | -82.00029 | 3295 ft | 90 kts | 297° |
| 2026-04-22 19:50 | 36.65866 | -82.00740 | 3179 ft | 86 kts | 278° |
| 2026-04-22 19:50 | 36.65741 | -82.01467 | 3057 ft | 87 kts | 256° |
| 2026-04-22 19:50 | 36.65654 | -82.02158 | 2989 ft | 78 kts | 282° |
| 2026-04-22 19:50 | 36.66041 | -82.02595 | 2970 ft | 87 kts | 334° |
| 2026-04-22 19:51 | 36.66672 | -82.02740 | 2939 ft | 99 kts | 2° |
| 2026-04-22 19:51 | 36.67192 | -82.02166 | 2972 ft | 99 kts | 55° |
| 2026-04-22 19:51 | 36.67528 | -82.01436 | 2931 ft | 96 kts | 53° |
| 2026-04-22 19:51 | 36.67869 | -82.00712 | 2854 ft | 97 kts | 51° |
| 2026-04-22 19:52 | 36.68254 | -82.00001 | 2747 ft | 101 kts | 44° |
| 2026-04-22 19:52 | 36.68769 | -81.99551 | 2707 ft | 82 kts | 351° |
| 2026-04-22 19:52 | 36.69271 | -81.99727 | 2637 ft | 66 kts | 325° |
| 2026-04-22 19:52 | 36.69670 | -81.99944 | 2575 ft | 61 kts | 315° |
| 2026-04-22 19:53 | 36.70007 | -82.00267 | 2553 ft | 55 kts | 293° |
| 2026-04-22 19:53 | 36.70005 | -82.00719 | 2467 ft | 58 kts | 251° |
| 2026-04-22 19:53 | 36.69819 | -82.01139 | 2416 ft | 51 kts | 241° |
| 2026-04-22 19:53 | 36.69638 | -82.01533 | 2357 ft | 53 kts | 243° |
| 2026-04-22 19:54 | 36.69456 | -82.01922 | 2315 ft | 51 kts | 241° |
| 2026-04-22 19:54 | 36.69253 | -82.02312 | 2216 ft | 51 kts | 241° |
| 2026-04-22 19:54 | 36.69074 | -82.02660 | 2137 ft | 45 kts | 238° |
| 2026-04-22 19:54 | 36.68901 | -82.02982 | 2081 ft | 42 kts | 238° |
| 2026-04-22 19:55 | 36.68760 | -82.03249 | 2076 ft | 33 kts | 235° |
| 2026-04-22 19:55 | 36.68639 | -82.03468 | 2075 ft | 27 kts | 232° |
| 2026-04-22 19:55 | 36.68563 | -82.03481 | 2074 ft | 0 kts | 146° |
| 2026-04-22 19:56 | 36.68534 | -82.03455 | 2073 ft | 3 kts | 115° |
| 2026-04-22 19:56 | 36.68554 | -82.03368 | 2072 ft | 11 kts | 81° |
| 2026-04-22 19:56 | 36.68574 | -82.03300 | 2071 ft | 8 kts | 57° |
| 2026-04-22 19:57 | 36.68599 | -82.03300 | 2072 ft | 0 kts | 316° |
| 2026-04-22 19:57 | 36.68601 | -82.03301 | 2073 ft | 0 kts | 318° |
| 2026-04-22 20:10 | 36.68608 | -82.03308 | 2073 ft | 4 kts | 314° |
| 2026-04-22 20:11 | 36.68581 | -82.03364 | 2073 ft | 5 kts | 236° |
| 2026-04-22 20:11 | 36.68579 | -82.03373 | 2073 ft | 0 kts | 288° |
| 2026-04-22 20:11 | 36.68607 | -82.03378 | 2074 ft | 12 kts | 43° |
| 2026-04-22 20:11 | 36.68684 | -82.03245 | 2073 ft | 22 kts | 55° |
| 2026-04-22 20:12 | 36.68782 | -82.03064 | 2072 ft | 27 kts | 55° |
| 2026-04-22 20:12 | 36.68876 | -82.02890 | 2070 ft | 24 kts | 60° |
| 2026-04-22 20:12 | 36.68934 | -82.02782 | 2071 ft | 18 kts | 59° |
| 2026-04-22 20:12 | 36.68956 | -82.02750 | 2072 ft | 0 kts | 20° |
| 2026-04-22 20:14 | 36.68984 | -82.02737 | 2073 ft | 11 kts | 19° |
| 2026-04-22 20:14 | 36.69041 | -82.02733 | 2076 ft | 9 kts | 246° |
| 2026-04-22 20:15 | 36.69029 | -82.02754 | 2076 ft | 16 kts | 233° |
| 2026-04-22 20:15 | 36.68853 | -82.03065 | 2098 ft | 62 kts | 237° |
| 2026-04-22 20:15 | 36.68586 | -82.03526 | 2288 ft | 66 kts | 234° |
| 2026-04-22 20:15 | 36.68292 | -82.03997 | 2473 ft | 71 kts | 234° |
| 2026-04-22 20:16 | 36.67966 | -82.04455 | 2708 ft | 69 kts | 232° |
| 2026-04-22 20:16 | 36.67652 | -82.04926 | 2890 ft | 71 kts | 235° |
| 2026-04-22 20:16 | 36.67312 | -82.05374 | 3092 ft | 74 kts | 217° |
| 2026-04-22 20:16 | 36.66761 | -82.05409 | 3258 ft | 91 kts | 171° |
| 2026-04-22 20:17 | 36.66155 | -82.05167 | 3429 ft | 91 kts | 172° |
| 2026-04-22 20:17 | 36.65539 | -82.04896 | 3584 ft | 94 kts | 165° |
| 2026-04-22 20:17 | 36.64975 | -82.04446 | 3745 ft | 98 kts | 151° |
| 2026-04-22 20:17 | 36.64412 | -82.03963 | 3912 ft | 97 kts | 152° |
| 2026-04-22 20:18 | 36.63857 | -82.03472 | 4109 ft | 96 kts | 147° |
| 2026-04-22 20:18 | 36.63325 | -82.02960 | 4261 ft | 97 kts | 154° |
| 2026-04-22 20:18 | 36.62754 | -82.02483 | 4411 ft | 100 kts | 153° |
| 2026-04-22 20:18 | 36.62159 | -82.02010 | 4582 ft | 99 kts | 153° |
| 2026-04-22 20:19 | 36.61603 | -82.01490 | 4730 ft | 102 kts | 153° |
| 2026-04-22 20:19 | 36.61007 | -82.00992 | 4879 ft | 103 kts | 153° |
| 2026-04-22 20:19 | 36.60429 | -82.00519 | 5060 ft | 100 kts | 154° |
| 2026-04-22 20:19 | 36.59848 | -82.00002 | 5210 ft | 102 kts | 148° |
| 2026-04-22 20:20 | 36.59272 | -81.99464 | 5356 ft | 103 kts | 152° |
| 2026-04-22 20:20 | 36.58668 | -81.99017 | 5525 ft | 102 kts | 149° |
| 2026-04-22 20:20 | 36.58076 | -81.98515 | 5663 ft | 102 kts | 159° |
| 2026-04-22 20:20 | 36.57478 | -81.98055 | 5827 ft | 102 kts | 155° |
| 2026-04-22 20:21 | 36.56847 | -81.97617 | 5973 ft | 103 kts | 158° |
| 2026-04-22 20:21 | 36.56227 | -81.97167 | 6142 ft | 102 kts | 157° |
| 2026-04-22 20:21 | 36.55608 | -81.96723 | 6274 ft | 106 kts | 158° |
| 2026-04-22 20:21 | 36.54964 | -81.96282 | 6441 ft | 105 kts | 153° |
| 2026-04-22 20:22 | 36.54336 | -81.95811 | 6588 ft | 104 kts | 157° |
| 2026-04-22 20:22 | 36.53719 | -81.95341 | 6734 ft | 106 kts | 155° |
| 2026-04-22 20:22 | 36.53111 | -81.94799 | 6858 ft | 109 kts | 148° |
| 2026-04-22 20:22 | 36.52452 | -81.94341 | 6981 ft | 105 kts | 159° |
| 2026-04-22 20:23 | 36.51831 | -81.93855 | 7099 ft | 107 kts | 155° |
| 2026-04-22 20:23 | 36.51210 | -81.93339 | 7246 ft | 106 kts | 149° |
| 2026-04-22 20:23 | 36.50635 | -81.92784 | 7333 ft | 112 kts | 146° |
| 2026-04-22 20:23 | 36.50040 | -81.92149 | 7414 ft | 113 kts | 143° |
| 2026-04-22 20:24 | 36.49455 | -81.91485 | 7494 ft | 114 kts | 142° |
| 2026-04-22 20:24 | 36.48832 | -81.90857 | 7503 ft | 119 kts | 152° |
| 2026-04-22 20:24 | 36.48118 | -81.90276 | 7502 ft | 123 kts | 153° |
| 2026-04-22 20:24 | 36.47393 | -81.89697 | 7501 ft | 125 kts | 153° |
| 2026-04-22 20:25 | 36.46700 | -81.89033 | 7498 ft | 127 kts | 146° |
| 2026-04-22 20:25 | 36.46013 | -81.88321 | 7498 ft | 128 kts | 142° |
| 2026-04-22 20:25 | 36.45386 | -81.87526 | 7497 ft | 129 kts | 136° |
| 2026-04-22 20:25 | 36.44772 | -81.86704 | 7496 ft | 129 kts | 136° |
| 2026-04-22 20:26 | 36.44168 | -81.85894 | 7497 ft | 129 kts | 137° |
| 2026-04-22 20:26 | 36.43557 | -81.85067 | 7497 ft | 129 kts | 136° |
| 2026-04-22 20:26 | 36.42954 | -81.84248 | 7497 ft | 129 kts | 136° |
| 2026-04-22 20:26 | 36.42346 | -81.83422 | 7495 ft | 129 kts | 136° |
| 2026-04-22 20:27 | 36.41739 | -81.82601 | 7497 ft | 129 kts | 136° |
| 2026-04-22 20:27 | 36.41210 | -81.81705 | 7493 ft | 131 kts | 113° |
| 2026-04-22 20:27 | 36.40895 | -81.80641 | 7492 ft | 131 kts | 108° |
| 2026-04-22 20:27 | 36.40596 | -81.79572 | 7491 ft | 131 kts | 108° |
| 2026-04-22 20:28 | 36.40287 | -81.78492 | 7491 ft | 131 kts | 109° |
| 2026-04-22 20:28 | 36.39977 | -81.77437 | 7492 ft | 131 kts | 109° |
| 2026-04-22 20:28 | 36.39662 | -81.76368 | 7490 ft | 131 kts | 110° |
| 2026-04-22 20:28 | 36.39350 | -81.75299 | 7493 ft | 131 kts | 109° |
| 2026-04-22 20:29 | 36.39040 | -81.74236 | 7493 ft | 130 kts | 109° |
| 2026-04-22 20:29 | 36.38732 | -81.73183 | 7491 ft | 131 kts | 109° |
| 2026-04-22 20:29 | 36.38424 | -81.72121 | 7489 ft | 131 kts | 109° |
| 2026-04-22 20:29 | 36.38118 | -81.71064 | 7490 ft | 130 kts | 109° |
| 2026-04-22 20:30 | 36.37810 | -81.70007 | 7491 ft | 130 kts | 109° |
| 2026-04-22 20:30 | 36.37500 | -81.68954 | 7492 ft | 131 kts | 109° |
| 2026-04-22 20:30 | 36.37186 | -81.67888 | 7491 ft | 131 kts | 109° |
| 2026-04-22 20:30 | 36.36868 | -81.66821 | 7491 ft | 131 kts | 109° |
| 2026-04-22 20:31 | 36.36554 | -81.65759 | 7493 ft | 131 kts | 110° |
| 2026-04-22 20:31 | 36.36239 | -81.64697 | 7493 ft | 131 kts | 109° |
| 2026-04-22 20:31 | 36.35926 | -81.63644 | 7493 ft | 131 kts | 109° |
| 2026-04-22 20:31 | 36.35614 | -81.62588 | 7495 ft | 131 kts | 110° |
| 2026-04-22 20:32 | 36.35302 | -81.61526 | 7498 ft | 131 kts | 109° |
| 2026-04-22 20:32 | 36.34987 | -81.60462 | 7500 ft | 130 kts | 110° |
| 2026-04-22 20:32 | 36.34674 | -81.59412 | 7501 ft | 131 kts | 110° |
| 2026-04-22 20:32 | 36.34358 | -81.58352 | 7501 ft | 131 kts | 109° |
| 2026-04-22 20:33 | 36.34038 | -81.57288 | 7500 ft | 131 kts | 110° |
| 2026-04-22 20:33 | 36.33722 | -81.56229 | 7496 ft | 131 kts | 109° |
| 2026-04-22 20:33 | 36.33402 | -81.55167 | 7492 ft | 131 kts | 110° |
| 2026-04-22 20:33 | 36.33082 | -81.54099 | 7490 ft | 131 kts | 109° |
| 2026-04-22 20:34 | 36.32767 | -81.53048 | 7492 ft | 130 kts | 109° |
| 2026-04-22 20:34 | 36.32450 | -81.51992 | 7495 ft | 130 kts | 109° |
| 2026-04-22 20:34 | 36.32139 | -81.50948 | 7497 ft | 130 kts | 110° |
| 2026-04-22 20:34 | 36.31824 | -81.49895 | 7495 ft | 130 kts | 110° |
| 2026-04-22 20:35 | 36.31509 | -81.48833 | 7492 ft | 131 kts | 109° |
| 2026-04-22 20:35 | 36.31196 | -81.47783 | 7488 ft | 131 kts | 109° |
| 2026-04-22 20:35 | 36.30873 | -81.46711 | 7486 ft | 131 kts | 110° |
| 2026-04-22 20:35 | 36.30558 | -81.45660 | 7484 ft | 131 kts | 110° |
| 2026-04-22 20:36 | 36.30239 | -81.44607 | 7483 ft | 130 kts | 110° |
| 2026-04-22 20:36 | 36.29922 | -81.43554 | 7484 ft | 130 kts | 109° |
| 2026-04-22 20:36 | 36.29600 | -81.42488 | 7482 ft | 130 kts | 110° |
| 2026-04-22 20:36 | 36.29284 | -81.41439 | 7479 ft | 131 kts | 109° |
| 2026-04-22 20:37 | 36.28961 | -81.40380 | 7478 ft | 130 kts | 110° |
| 2026-04-22 20:37 | 36.28639 | -81.39329 | 7476 ft | 130 kts | 110° |
| 2026-04-22 20:37 | 36.28323 | -81.38291 | 7477 ft | 130 kts | 109° |
| 2026-04-22 20:37 | 36.27999 | -81.37237 | 7473 ft | 130 kts | 110° |
| 2026-04-22 20:38 | 36.27680 | -81.36192 | 7466 ft | 130 kts | 109° |
| 2026-04-22 20:38 | 36.27360 | -81.35149 | 7468 ft | 129 kts | 110° |
| 2026-04-22 20:38 | 36.27070 | -81.34087 | 7469 ft | 128 kts | 104° |
| 2026-04-22 20:38 | 36.26834 | -81.33037 | 7466 ft | 128 kts | 104° |
| 2026-04-22 20:39 | 36.26598 | -81.31971 | 7469 ft | 127 kts | 104° |
| 2026-04-22 20:39 | 36.26365 | -81.30911 | 7469 ft | 127 kts | 104° |
| 2026-04-22 20:39 | 36.26111 | -81.29861 | 7468 ft | 128 kts | 108° |
| 2026-04-22 20:39 | 36.25825 | -81.28816 | 7458 ft | 129 kts | 108° |
| 2026-04-22 20:40 | 36.25532 | -81.27755 | 7453 ft | 129 kts | 108° |
| 2026-04-22 20:40 | 36.25246 | -81.26711 | 7453 ft | 128 kts | 108° |
| 2026-04-22 20:40 | 36.24956 | -81.25670 | 7449 ft | 128 kts | 109° |
| 2026-04-22 20:40 | 36.24665 | -81.24620 | 7461 ft | 127 kts | 108° |
| 2026-04-22 20:41 | 36.24385 | -81.23598 | 7485 ft | 125 kts | 108° |
| 2026-04-22 20:41 | 36.24101 | -81.22561 | 7484 ft | 126 kts | 108° |
| 2026-04-22 20:41 | 36.23821 | -81.21536 | 7482 ft | 126 kts | 109° |
| 2026-04-22 20:41 | 36.23542 | -81.20515 | 7486 ft | 126 kts | 108° |
| 2026-04-22 20:42 | 36.23260 | -81.19484 | 7487 ft | 126 kts | 108° |
| 2026-04-22 20:42 | 36.22978 | -81.18450 | 7491 ft | 126 kts | 109° |
| 2026-04-22 20:42 | 36.22697 | -81.17423 | 7485 ft | 127 kts | 108° |
| 2026-04-22 20:42 | 36.22411 | -81.16385 | 7487 ft | 127 kts | 108° |
| 2026-04-22 20:43 | 36.22125 | -81.15355 | 7483 ft | 127 kts | 109° |
| 2026-04-22 20:43 | 36.21840 | -81.14325 | 7486 ft | 127 kts | 108° |
| 2026-04-22 20:43 | 36.21549 | -81.13283 | 7485 ft | 127 kts | 108° |
| 2026-04-22 20:43 | 36.21191 | -81.12296 | 7485 ft | 127 kts | 123° |
| 2026-04-22 20:44 | 36.20717 | -81.11368 | 7484 ft | 127 kts | 124° |
| 2026-04-22 20:44 | 36.20237 | -81.10448 | 7486 ft | 127 kts | 124° |
| 2026-04-22 20:44 | 36.19759 | -81.09525 | 7488 ft | 127 kts | 124° |
| 2026-04-22 20:44 | 36.19276 | -81.08594 | 7485 ft | 128 kts | 122° |
| 2026-04-22 20:45 | 36.18850 | -81.07621 | 7485 ft | 128 kts | 118° |
| 2026-04-22 20:45 | 36.18448 | -81.06639 | 7483 ft | 128 kts | 118° |
| 2026-04-22 20:45 | 36.18051 | -81.05659 | 7483 ft | 127 kts | 117° |
| 2026-04-22 20:45 | 36.17656 | -81.04691 | 7479 ft | 127 kts | 117° |
| 2026-04-22 20:46 | 36.16856 | -81.02743 | 7480 ft | 127 kts | 117° |
| 2026-04-22 20:46 | 36.16450 | -81.01761 | 7476 ft | 128 kts | 117° |
| 2026-04-22 20:46 | 36.16045 | -81.00781 | 7472 ft | 128 kts | 118° |
| 2026-04-22 20:47 | 36.15638 | -80.99799 | 7471 ft | 127 kts | 118° |
| 2026-04-22 20:47 | 36.15234 | -80.98831 | 7473 ft | 127 kts | 118° |
| 2026-04-22 20:47 | 36.14826 | -80.97852 | 7472 ft | 127 kts | 117° |
| 2026-04-22 20:47 | 36.14421 | -80.96873 | 7472 ft | 128 kts | 118° |
| 2026-04-22 20:48 | 36.14019 | -80.95892 | 7474 ft | 128 kts | 118° |
| 2026-04-22 20:48 | 36.13616 | -80.94900 | 7471 ft | 129 kts | 117° |
| 2026-04-22 20:48 | 36.13219 | -80.93911 | 7470 ft | 129 kts | 117° |
| 2026-04-22 20:48 | 36.12817 | -80.92915 | 7464 ft | 129 kts | 118° |
| 2026-04-22 20:49 | 36.12413 | -80.91921 | 7463 ft | 129 kts | 117° |
| 2026-04-22 20:49 | 36.12009 | -80.90936 | 7461 ft | 128 kts | 117° |
| 2026-04-22 20:49 | 36.11602 | -80.89954 | 7460 ft | 128 kts | 118° |
| 2026-04-22 20:49 | 36.11192 | -80.88970 | 7459 ft | 128 kts | 118° |
| 2026-04-22 20:50 | 36.10788 | -80.88002 | 7458 ft | 128 kts | 117° |
| 2026-04-22 20:50 | 36.10378 | -80.87021 | 7457 ft | 128 kts | 118° |
| 2026-04-22 20:50 | 36.09973 | -80.86049 | 7456 ft | 128 kts | 118° |
| 2026-04-22 20:50 | 36.09566 | -80.85066 | 7454 ft | 128 kts | 118° |
| 2026-04-22 20:51 | 36.09158 | -80.84074 | 7453 ft | 128 kts | 118° |
| 2026-04-22 20:51 | 36.08755 | -80.83096 | 7452 ft | 127 kts | 118° |
| 2026-04-22 20:51 | 36.08358 | -80.82127 | 7450 ft | 127 kts | 118° |
| 2026-04-22 20:51 | 36.07959 | -80.81142 | 7448 ft | 127 kts | 118° |
| 2026-04-22 20:52 | 36.07563 | -80.80170 | 7449 ft | 127 kts | 118° |
| 2026-04-22 20:52 | 36.07160 | -80.79190 | 7446 ft | 127 kts | 118° |
| 2026-04-22 20:52 | 36.06762 | -80.78216 | 7445 ft | 128 kts | 118° |
| 2026-04-22 20:52 | 36.06355 | -80.77226 | 7446 ft | 128 kts | 118° |
| 2026-04-22 20:53 | 36.05950 | -80.76250 | 7444 ft | 128 kts | 118° |
| 2026-04-22 20:53 | 36.05543 | -80.75275 | 7442 ft | 128 kts | 118° |
| 2026-04-22 20:53 | 36.05129 | -80.74290 | 7441 ft | 128 kts | 118° |
| 2026-04-22 20:53 | 36.04720 | -80.73315 | 7438 ft | 128 kts | 118° |
| 2026-04-22 20:54 | 36.04313 | -80.72343 | 7438 ft | 128 kts | 118° |
| 2026-04-22 20:54 | 36.03903 | -80.71368 | 7435 ft | 128 kts | 118° |
| 2026-04-22 20:54 | 36.03493 | -80.70393 | 7436 ft | 128 kts | 118° |
| 2026-04-22 20:54 | 36.03085 | -80.69415 | 7436 ft | 128 kts | 118° |
| 2026-04-22 20:55 | 36.02679 | -80.68442 | 7436 ft | 128 kts | 118° |
| 2026-04-22 20:55 | 36.02268 | -80.67461 | 7436 ft | 128 kts | 118° |
| 2026-04-22 20:55 | 36.01823 | -80.66506 | 7438 ft | 127 kts | 123° |
| 2026-04-22 20:55 | 36.01348 | -80.65587 | 7436 ft | 127 kts | 125° |
| 2026-04-22 20:56 | 36.00862 | -80.64677 | 7434 ft | 127 kts | 125° |
| 2026-04-22 20:56 | 36.00378 | -80.63776 | 7433 ft | 127 kts | 125° |
| 2026-04-22 20:56 | 35.99884 | -80.62856 | 7434 ft | 127 kts | 125° |
| 2026-04-22 20:56 | 35.99401 | -80.61960 | 7462 ft | 125 kts | 125° |
| 2026-04-22 20:57 | 35.98916 | -80.61055 | 7471 ft | 125 kts | 125° |
| 2026-04-22 20:57 | 35.98432 | -80.60156 | 7472 ft | 126 kts | 125° |
| 2026-04-22 20:57 | 35.97946 | -80.59254 | 7472 ft | 127 kts | 125° |
| 2026-04-22 20:57 | 35.97463 | -80.58350 | 7468 ft | 127 kts | 124° |
| 2026-04-22 20:58 | 35.96995 | -80.57419 | 7465 ft | 128 kts | 123° |
| 2026-04-22 20:58 | 35.96528 | -80.56477 | 7464 ft | 127 kts | 123° |
| 2026-04-22 20:58 | 35.96063 | -80.55535 | 7462 ft | 127 kts | 123° |
| 2026-04-22 20:58 | 35.95604 | -80.54608 | 7460 ft | 127 kts | 123° |
| 2026-04-22 20:59 | 35.95137 | -80.53673 | 7460 ft | 127 kts | 123° |
| 2026-04-22 20:59 | 35.94673 | -80.52746 | 7458 ft | 127 kts | 123° |
| 2026-04-22 20:59 | 35.94208 | -80.51820 | 7460 ft | 127 kts | 123° |
| 2026-04-22 20:59 | 35.93738 | -80.50891 | 7462 ft | 127 kts | 123° |
| 2026-04-22 21:00 | 35.93268 | -80.49961 | 7462 ft | 127 kts | 123° |
| 2026-04-22 21:00 | 35.92801 | -80.49042 | 7462 ft | 127 kts | 123° |
| 2026-04-22 21:00 | 35.92327 | -80.48113 | 7462 ft | 127 kts | 124° |
| 2026-04-22 21:00 | 35.91729 | -80.47323 | 7459 ft | 125 kts | 143° |
| 2026-04-22 21:01 | 35.91076 | -80.46620 | 7460 ft | 125 kts | 143° |
| 2026-04-22 21:01 | 35.90420 | -80.45918 | 7463 ft | 125 kts | 144° |
| 2026-04-22 21:01 | 35.89767 | -80.45212 | 7461 ft | 125 kts | 143° |
| 2026-04-22 21:01 | 35.89106 | -80.44498 | 7460 ft | 125 kts | 143° |
| 2026-04-22 21:02 | 35.88450 | -80.43795 | 7459 ft | 125 kts | 143° |
| 2026-04-22 21:02 | 35.87797 | -80.43098 | 7462 ft | 124 kts | 143° |
| 2026-04-22 21:02 | 35.87141 | -80.42403 | 7464 ft | 124 kts | 144° |
| 2026-04-22 21:02 | 35.86483 | -80.41702 | 7469 ft | 124 kts | 144° |
| 2026-04-22 21:03 | 35.85832 | -80.41003 | 7473 ft | 124 kts | 143° |
| 2026-04-22 21:03 | 35.85260 | -80.40205 | 7477 ft | 126 kts | 131° |
| 2026-04-22 21:03 | 35.84730 | -80.39342 | 7482 ft | 126 kts | 130° |
| 2026-04-22 21:03 | 35.84197 | -80.38470 | 7485 ft | 127 kts | 130° |
| 2026-04-22 21:04 | 35.83669 | -80.37608 | 7484 ft | 127 kts | 131° |
| 2026-04-22 21:04 | 35.83136 | -80.36737 | 7484 ft | 127 kts | 130° |
| 2026-04-22 21:04 | 35.82604 | -80.35870 | 7483 ft | 127 kts | 130° |
| 2026-04-22 21:04 | 35.82068 | -80.34998 | 7483 ft | 127 kts | 131° |
| 2026-04-22 21:05 | 35.81532 | -80.34125 | 7480 ft | 127 kts | 131° |
| 2026-04-22 21:05 | 35.81003 | -80.33260 | 7479 ft | 126 kts | 131° |
| 2026-04-22 21:05 | 35.80472 | -80.32394 | 7479 ft | 126 kts | 131° |
| 2026-04-22 21:05 | 35.79939 | -80.31524 | 7478 ft | 126 kts | 131° |
| 2026-04-22 21:06 | 35.79411 | -80.30655 | 7479 ft | 126 kts | 131° |
| 2026-04-22 21:06 | 35.78882 | -80.29789 | 7479 ft | 126 kts | 131° |
| 2026-04-22 21:06 | 35.78357 | -80.28910 | 7479 ft | 127 kts | 125° |
| 2026-04-22 21:06 | 35.77989 | -80.27921 | 7479 ft | 128 kts | 115° |
| 2026-04-22 21:07 | 35.77646 | -80.26909 | 7474 ft | 128 kts | 114° |
| 2026-04-22 21:07 | 35.77302 | -80.25891 | 7415 ft | 133 kts | 114° |
| 2026-04-22 21:07 | 35.76936 | -80.24817 | 7297 ft | 136 kts | 115° |
| 2026-04-22 21:07 | 35.76567 | -80.23734 | 7173 ft | 137 kts | 114° |
| 2026-04-22 21:08 | 35.76194 | -80.22656 | 7051 ft | 137 kts | 115° |
| 2026-04-22 21:08 | 35.75823 | -80.21589 | 6930 ft | 137 kts | 115° |
| 2026-04-22 21:08 | 35.75442 | -80.20503 | 6807 ft | 137 kts | 115° |
| 2026-04-22 21:08 | 35.75065 | -80.19426 | 6689 ft | 138 kts | 115° |
| 2026-04-22 21:09 | 35.74686 | -80.18343 | 6569 ft | 138 kts | 115° |
| 2026-04-22 21:09 | 35.74311 | -80.17268 | 6449 ft | 137 kts | 115° |
| 2026-04-22 21:09 | 35.73936 | -80.16192 | 6329 ft | 138 kts | 115° |
| 2026-04-22 21:09 | 35.73557 | -80.15102 | 6209 ft | 137 kts | 115° |
| 2026-04-22 21:10 | 35.73186 | -80.14030 | 6090 ft | 136 kts | 115° |
| 2026-04-22 21:10 | 35.72820 | -80.12956 | 5970 ft | 136 kts | 115° |
| 2026-04-22 21:10 | 35.72453 | -80.11865 | 5850 ft | 137 kts | 115° |
| 2026-04-22 21:10 | 35.72092 | -80.10798 | 5730 ft | 136 kts | 115° |
| 2026-04-22 21:11 | 35.71726 | -80.09727 | 5611 ft | 137 kts | 115° |
| 2026-04-22 21:11 | 35.71355 | -80.08641 | 5489 ft | 137 kts | 115° |
| 2026-04-22 21:11 | 35.70986 | -80.07564 | 5371 ft | 137 kts | 115° |
| 2026-04-22 21:11 | 35.70616 | -80.06484 | 5251 ft | 137 kts | 115° |
| 2026-04-22 21:12 | 35.70247 | -80.05409 | 5131 ft | 135 kts | 115° |
| 2026-04-22 21:12 | 35.69881 | -80.04342 | 5009 ft | 133 kts | 115° |
| 2026-04-22 21:12 | 35.69526 | -80.03304 | 4893 ft | 132 kts | 115° |
| 2026-04-22 21:12 | 35.69162 | -80.02241 | 4671 ft | 139 kts | 115° |
| 2026-04-22 21:13 | 35.68782 | -80.01133 | 4437 ft | 142 kts | 115° |
| 2026-04-22 21:13 | 35.68530 | -79.99957 | 4183 ft | 144 kts | 88° |
| 2026-04-22 21:13 | 35.68852 | -79.98849 | 3932 ft | 139 kts | 48° |
| 2026-04-22 21:13 | 35.69588 | -79.98237 | 3662 ft | 119 kts | 7° |
| 2026-04-22 21:14 | 35.70332 | -79.98322 | 3406 ft | 103 kts | 327° |
| 2026-04-22 21:14 | 35.70762 | -79.98944 | 3147 ft | 95 kts | 286° |
| 2026-04-22 21:14 | 35.70676 | -79.99732 | 2889 ft | 98 kts | 245° |
| 2026-04-22 21:14 | 35.70120 | -80.00230 | 2628 ft | 107 kts | 204° |
| 2026-04-22 21:15 | 35.69345 | -80.00131 | 2372 ft | 120 kts | 164° |
| 2026-04-22 21:15 | 35.68732 | -79.99405 | 2123 ft | 128 kts | 124° |
| 2026-04-22 21:15 | 35.68413 | -79.98432 | 2103 ft | 120 kts | 114° |
| 2026-04-22 21:15 | 35.68130 | -79.97465 | 2101 ft | 121 kts | 113° |
| 2026-04-22 21:16 | 35.67847 | -79.96491 | 2109 ft | 121 kts | 113° |
| 2026-04-22 21:16 | 35.67558 | -79.95505 | 2106 ft | 124 kts | 114° |
| 2026-04-22 21:16 | 35.67262 | -79.94506 | 2112 ft | 124 kts | 115° |
| 2026-04-22 21:16 | 35.66956 | -79.93504 | 2109 ft | 125 kts | 114° |
| 2026-04-22 21:17 | 35.66652 | -79.92508 | 2109 ft | 125 kts | 114° |
| 2026-04-22 21:17 | 35.66342 | -79.91510 | 2111 ft | 124 kts | 114° |
| 2026-04-22 21:17 | 35.66034 | -79.90515 | 2111 ft | 123 kts | 114° |
| 2026-04-22 21:17 | 35.65729 | -79.89532 | 2116 ft | 123 kts | 115° |
| 2026-04-22 21:18 | 35.65429 | -79.88547 | 2116 ft | 122 kts | 114° |
| 2026-04-22 21:18 | 35.65129 | -79.87572 | 2111 ft | 123 kts | 115° |
| 2026-04-22 21:18 | 35.64829 | -79.86581 | 2109 ft | 123 kts | 115° |
| 2026-04-22 21:18 | 35.64529 | -79.85606 | 2107 ft | 123 kts | 115° |
| 2026-04-22 21:19 | 35.64020 | -79.84818 | 2102 ft | 114 kts | 156° |
| 2026-04-22 21:19 | 35.63287 | -79.84660 | 2046 ft | 105 kts | 200° |
| 2026-04-22 21:19 | 35.62740 | -79.85155 | 1919 ft | 97 kts | 245° |
| 2026-04-22 21:19 | 35.62711 | -79.85946 | 1805 ft | 97 kts | 285° |
| 2026-04-22 21:20 | 35.63018 | -79.86702 | 1686 ft | 96 kts | 293° |
| 2026-04-22 21:20 | 35.63441 | -79.87308 | 1597 ft | 94 kts | 321° |
| 2026-04-22 21:20 | 35.64104 | -79.87263 | 1544 ft | 103 kts | 26° |
| 2026-04-22 21:20 | 35.64674 | -79.86746 | 1541 ft | 98 kts | 31° |
| 2026-04-22 21:21 | 35.65180 | -79.86227 | 1529 ft | 91 kts | 30° |
| 2026-04-22 21:21 | 35.65701 | -79.85745 | 1482 ft | 90 kts | 27° |
| 2026-04-22 21:21 | 35.66224 | -79.85319 | 1427 ft | 90 kts | 25° |
| 2026-04-22 21:21 | 35.66775 | -79.84954 | 1365 ft | 89 kts | 18° |
| 2026-04-22 21:22 | 35.67343 | -79.84941 | 1280 ft | 78 kts | 325° |
| 2026-04-22 21:22 | 35.67674 | -79.85432 | 1212 ft | 74 kts | 293° |
| 2026-04-22 21:22 | 35.67920 | -79.85944 | 1166 ft | 67 kts | 294° |
| 2026-04-22 21:22 | 35.68117 | -79.86446 | 1107 ft | 64 kts | 289° |
| 2026-04-22 21:23 | 35.68330 | -79.86936 | 1036 ft | 67 kts | 292° |
| 2026-04-22 21:23 | 35.68518 | -79.87471 | 992 ft | 69 kts | 275° |
| 2026-04-22 21:23 | 35.68321 | -79.87962 | 961 ft | 68 kts | 219° |
| 2026-04-22 21:23 | 35.67921 | -79.88229 | 933 ft | 60 kts | 206° |
| 2026-04-22 21:24 | 35.67536 | -79.88432 | 898 ft | 62 kts | 206° |
| 2026-04-22 21:24 | 35.67125 | -79.88644 | 876 ft | 60 kts | 206° |
| 2026-04-22 21:24 | 35.66752 | -79.88831 | 817 ft | 57 kts | 208° |
| 2026-04-22 21:24 | 35.66382 | -79.89020 | 735 ft | 57 kts | 205° |
| 2026-04-22 21:25 | 35.66016 | -79.89201 | 666 ft | 55 kts | 204° |
| 2026-04-22 21:25 | 35.65680 | -79.89367 | 643 ft | 44 kts | 205° |
| 2026-04-22 21:25 | 35.65423 | -79.89488 | 646 ft | 28 kts | 198° |
| 2026-04-22 21:25 | 35.65346 | -79.89428 | 645 ft | 2 kts | 112° |
| 2026-04-22 21:26 | 35.65346 | -79.89427 | 645 ft | 0 kts | 112° |
| 2026-04-22 21:27 | 35.65339 | -79.89400 | 644 ft | 8 kts | 99° |
| 2026-04-22 21:28 | 35.65346 | -79.89375 | 643 ft | 1 kts | 20° |
| 2026-04-22 21:28 | 35.65353 | -79.89372 | 643 ft | 0 kts | 19° |